Time;durP1;ratioP1;P1;durP2;ratioP2;P2;SDS_P1;SDS_P2;PMS_P1;PMS_P2;Temp;Humidity;BMP_temperature;BMP_pressure;BME280_temperature;BME280_humidity;BME280_pressure;Samples;Min_cycle;Max_cycle;Signal;HPM_P1;HPM_P2
2023/05/01 00:01:14;;;;;;;7.63;4.07;;;;;;;9.04;48.85;100910.16;5011363;28;20554;-71
2023/05/01 00:03:42;;;;;;;8.57;4.40;;;;;;;8.97;48.76;100904.09;5011161;28;20204;-72
2023/05/01 00:06:10;;;;;;;9.57;4.27;;;;;;;8.93;49.05;100908.34;5011079;28;20207;-71
2023/05/01 00:08:38;;;;;;;5.77;4.43;;;;;;;8.91;49.61;100911.75;5010850;28;20229;-73
2023/05/01 00:11:08;;;;;;;6.60;4.00;;;;;;;8.83;49.04;100914.25;5011454;28;20214;-71
2023/05/01 00:13:36;;;;;;;6.93;4.37;;;;;;;8.88;49.76;100909.19;5011043;28;20290;-71
2023/05/01 00:16:09;;;;;;;10.17;4.53;;;;;;;8.84;49.37;100905.72;5010956;28;20207;-70
2023/05/01 00:18:37;;;;;;;8.47;4.37;;;;;;;8.82;49.83;100911.69;5010828;28;20211;-72
2023/05/01 00:21:05;;;;;;;6.60;4.27;;;;;;;8.74;50.17;100918.47;5011381;28;20207;-72
2023/05/01 00:23:33;;;;;;;10.43;4.60;;;;;;;8.69;49.90;100911.56;5010905;28;20215;-74
2023/05/01 00:26:01;;;;;;;9.37;4.50;;;;;;;8.73;49.76;100919.28;5010762;28;20306;-72
2023/05/01 00:28:29;;;;;;;11.97;4.20;;;;;;;8.72;50.10;100908.16;5010848;28;20212;-72
2023/05/01 00:30:57;;;;;;;7.77;4.30;;;;;;;8.69;49.75;100914.16;5011275;28;20203;-70
2023/05/01 00:33:26;;;;;;;7.63;4.20;;;;;;;8.64;50.27;100914.94;5011048;28;20199;-71
2023/05/01 00:35:55;;;;;;;6.57;4.60;;;;;;;8.60;50.86;100920.88;5011099;28;20211;-71
2023/05/01 00:38:23;;;;;;;6.50;3.43;;;;;;;8.52;49.80;100918.22;5011252;28;20602;-72
2023/05/01 00:40:51;;;;;;;7.27;4.00;;;;;;;8.42;50.42;100913.84;5010998;28;20219;-71
2023/05/01 00:43:19;;;;;;;11.63;4.27;;;;;;;8.37;50.97;100916.34;5010760;28;20231;-71
2023/05/01 00:45:47;;;;;;;6.87;4.23;;;;;;;8.31;50.75;100918.81;5010855;28;20613;-71
2023/05/01 00:48:16;;;;;;;7.57;4.00;;;;;;;8.28;50.69;100913.63;5011043;28;20630;-71
2023/05/01 00:50:46;;;;;;;6.57;3.43;;;;;;;8.23;50.33;100916.16;5015207;28;20212;-71
2023/05/01 00:53:14;;;;;;;8.37;3.53;;;;;;;8.21;50.43;100917.84;5014366;28;20290;-74
2023/05/01 00:55:42;;;;;;;9.77;3.57;;;;;;;8.21;50.37;100914.41;5014383;28;20262;-71
2023/05/01 00:58:10;;;;;;;8.47;4.30;;;;;;;8.21;50.69;100917.84;5014373;28;20235;-71
2023/05/01 01:00:38;;;;;;;8.13;3.90;;;;;;;8.18;50.57;100912.69;5014602;28;20571;-71
2023/05/01 01:03:06;;;;;;;5.37;3.70;;;;;;;8.19;51.11;100914.41;5014249;28;20354;-71
2023/05/01 01:05:42;;;;;;;9.00;3.93;;;;;;;8.14;50.59;100913.50;5014285;28;20262;-72
2023/05/01 01:08:23;;;;;;;7.80;3.70;;;;;;;8.14;50.73;100922.91;5014231;28;20219;-70
2023/05/01 01:10:55;;;;;;;6.37;4.13;;;;;;;8.10;51.02;100923.69;5014423;28;20200;-71
2023/05/01 01:13:30;;;;;;;5.90;4.00;;;;;;;8.07;50.73;100914.25;5013967;28;21203;-70
2023/05/01 01:16:06;;;;;;;4.77;3.27;;;;;;;8.04;50.75;100906.50;5014343;28;20237;-71
2023/05/01 01:18:43;;;;;;;6.20;3.63;;;;;;;8.01;51.37;100919.31;5013739;28;20195;-71
2023/05/01 01:21:17;;;;;;;4.57;3.63;;;;;;;7.94;51.46;100917.50;5013846;28;20207;-74
2023/05/01 01:24:22;;;;;;;9.77;3.90;;;;;;;7.89;51.42;100921.72;5013881;28;20206;-70
2023/05/01 01:27:47;;;;;;;8.87;4.23;;;;;;;7.83;51.93;100919.06;5007129;28;20277;-70
2023/05/01 01:30:34;;;;;;;6.90;3.90;;;;;;;7.78;52.10;100918.16;4962955;28;20236;-70
2023/05/01 01:33:28;;;;;;;7.10;3.43;;;;;;;7.68;52.12;100925.69;4964474;28;20613;-72
2023/05/01 01:36:04;;;;;;;7.10;3.83;;;;;;;7.65;52.01;100920.50;5010501;28;20211;-73
2023/05/01 01:38:43;;;;;;;4.73;3.13;;;;;;;7.63;52.10;100919.66;5013768;28;20257;-70
2023/05/01 01:41:17;;;;;;;8.87;4.10;;;;;;;7.64;51.62;100921.38;5013630;28;20195;-71
2023/05/01 01:43:53;;;;;;;6.63;3.70;;;;;;;7.68;51.97;100930.81;5013561;28;20269;-71
2023/05/01 01:46:24;;;;;;;9.17;3.93;;;;;;;7.71;51.80;100925.75;5013286;28;20195;-70
2023/05/01 01:48:55;;;;;;;8.30;3.20;;;;;;;7.72;51.80;100922.34;5013425;28;20226;-71
2023/05/01 01:51:26;;;;;;;7.97;3.33;;;;;;;7.67;52.03;100929.09;5013293;28;20253;-71
2023/05/01 01:53:58;;;;;;;8.73;3.77;;;;;;;7.62;51.66;100923.06;5013447;28;20245;-71
2023/05/01 01:56:29;;;;;;;6.70;3.40;;;;;;;7.61;51.65;100933.28;5013365;28;20203;-72
2023/05/01 01:58:58;;;;;;;7.20;3.40;;;;;;;7.55;51.91;100933.19;5013519;28;20654;-71
2023/05/01 02:01:28;;;;;;;8.07;3.70;;;;;;;7.52;52.01;100928.88;5012153;28;20290;-71
2023/05/01 02:03:57;;;;;;;7.33;3.33;;;;;;;7.49;51.75;100923.72;5013449;28;20207;-71
2023/05/01 02:06:30;;;;;;;5.80;3.00;;;;;;;7.49;51.57;100928.84;5013204;28;20219;-71
2023/05/01 02:08:59;;;;;;;7.27;3.27;;;;;;;7.54;51.27;100929.75;5013419;28;20557;-76
2023/05/01 02:11:30;;;;;;;5.93;3.13;;;;;;;7.53;51.42;100933.16;5012893;28;20249;-71
2023/05/01 02:14:01;;;;;;;5.20;2.80;;;;;;;7.57;51.55;100929.81;5013034;28;20253;-71
2023/05/01 02:16:29;;;;;;;4.70;2.83;;;;;;;7.54;51.40;100926.34;5012918;28;20732;-71
2023/05/01 02:18:58;;;;;;;5.03;3.37;;;;;;;7.54;51.54;100931.47;5012519;28;20211;-71
2023/05/01 02:21:29;;;;;;;7.40;3.90;;;;;;;7.56;51.06;100933.22;5013023;28;20639;-70
2023/05/01 02:24:00;;;;;;;8.73;3.73;;;;;;;7.60;51.24;100924.72;5012750;28;20212;-70
2023/05/01 02:26:29;;;;;;;10.27;3.17;;;;;;;7.65;50.96;100925.66;5012642;28;20743;-70
2023/05/01 02:28:58;;;;;;;5.83;3.77;;;;;;;7.68;51.42;100930.81;5012967;28;20608;-70
2023/05/01 02:31:26;;;;;;;6.90;3.30;;;;;;;7.65;51.03;100932.47;5012797;28;20650;-71
2023/05/01 02:33:54;;;;;;;8.60;3.40;;;;;;;7.64;51.29;100923.94;5012523;28;20239;-70
2023/05/01 02:36:22;;;;;;;5.47;3.33;;;;;;;7.64;51.56;100926.50;4998869;28;20203;-69
2023/05/01 02:38:51;;;;;;;6.67;3.57;;;;;;;7.64;51.67;100929.06;5012380;28;20282;-71
2023/05/01 02:41:22;;;;;;;8.50;4.10;;;;;;;7.63;51.23;100929.91;5012532;28;20608;-72
2023/05/01 02:43:55;;;;;;;7.43;3.47;;;;;;;7.61;51.31;100931.56;5012907;28;20203;-73
2023/05/01 02:46:26;;;;;;;11.67;3.87;;;;;;;7.58;51.30;100928.09;5012390;28;20199;-74
2023/05/01 02:48:55;;;;;;;4.27;3.23;;;;;;;7.57;52.12;100926.38;5012693;28;20621;-71
2023/05/01 02:51:25;;;;;;;7.63;3.63;;;;;;;7.56;52.06;100920.41;5012427;28;20675;-72
2023/05/01 02:53:55;;;;;;;7.70;4.23;;;;;;;7.52;51.79;100920.34;5012508;28;20211;-71
2023/05/01 02:56:23;;;;;;;7.43;3.40;;;;;;;7.53;51.69;100924.63;5012197;28;20562;-71
2023/05/01 02:58:52;;;;;;;4.37;3.23;;;;;;;7.48;51.99;100922.00;5012443;28;20215;-72
2023/05/01 03:01:20;;;;;;;5.83;3.60;;;;;;;7.46;51.93;100921.09;5012188;28;20214;-71
2023/05/01 03:03:48;;;;;;;7.60;3.90;;;;;;;7.43;52.11;100928.72;5012381;28;20238;-71
2023/05/01 03:06:16;;;;;;;5.50;3.63;;;;;;;7.40;52.14;100932.13;5011874;28;20211;-71
2023/05/01 03:08:44;;;;;;;8.27;4.20;;;;;;;7.34;52.04;100928.59;5012462;28;20735;-70
2023/05/01 03:11:14;;;;;;;8.60;3.87;;;;;;;7.30;51.91;100927.69;5011711;28;20297;-71
2023/05/01 03:13:42;;;;;;;7.27;3.80;;;;;;;7.28;52.23;100923.38;5012130;28;20211;-72
2023/05/01 03:16:10;;;;;;;7.43;4.03;;;;;;;7.30;52.11;100927.69;5011742;28;20203;-71
2023/05/01 03:18:38;;;;;;;8.17;4.60;;;;;;;7.26;52.26;100925.91;5011779;28;20602;-71
2023/05/01 03:21:06;;;;;;;10.37;3.87;;;;;;;7.24;52.44;100925.88;5012104;28;20203;-75
2023/05/01 03:23:34;;;;;;;6.43;3.80;;;;;;;7.20;52.67;100929.22;5011815;28;20203;-70
2023/05/01 03:26:02;;;;;;;7.33;4.40;;;;;;;7.13;52.78;100923.97;5011683;28;20542;-71
2023/05/01 03:28:31;;;;;;;8.20;3.90;;;;;;;7.09;52.57;100922.22;5011783;28;20594;-70
2023/05/01 03:30:59;;;;;;;6.37;4.03;;;;;;;7.06;52.71;100928.13;5011395;28;20215;-70
2023/05/01 03:33:27;;;;;;;6.03;3.93;;;;;;;7.07;52.91;100927.31;5011558;28;20204;-70
2023/05/01 03:36:02;;;;;;;6.10;3.90;;;;;;;7.11;53.19;100925.69;5011216;28;20243;-70
2023/05/01 03:38:30;;;;;;;7.70;4.43;;;;;;;7.12;52.89;100928.25;5011406;28;20214;-70
2023/05/01 03:40:59;;;;;;;8.03;4.10;;;;;;;7.04;53.23;100924.72;5011746;28;20491;-71
2023/05/01 03:43:26;;;;;;;7.53;4.00;;;;;;;7.02;53.24;100916.13;5011948;28;20219;-71
2023/05/01 03:45:56;;;;;;;9.43;4.37;;;;;;;7.01;53.35;100922.09;5011241;28;20245;-70
2023/05/01 03:48:24;;;;;;;7.20;4.33;;;;;;;6.97;53.53;100922.88;5011692;28;20207;-72
2023/05/01 03:50:52;;;;;;;4.97;3.87;;;;;;;6.92;53.67;100920.25;5011631;28;20752;-71
2023/05/01 03:53:20;;;;;;;7.73;4.27;;;;;;;6.90;53.98;100921.03;5011372;28;20654;-70
2023/05/01 03:55:48;;;;;;;8.23;4.30;;;;;;;6.89;54.00;100927.00;5011264;28;20203;-72
2023/05/01 03:58:16;;;;;;;8.57;4.20;;;;;;;6.91;53.88;100922.75;5011086;28;20200;-70
2023/05/01 04:00:44;;;;;;;7.90;4.43;;;;;;;6.97;54.34;100917.75;5011123;28;20199;-70
2023/05/01 04:03:13;;;;;;;9.10;4.50;;;;;;;7.03;53.98;100925.53;5011221;28;20258;-70
2023/05/01 04:05:42;;;;;;;5.40;3.57;;;;;;;7.12;53.61;100922.28;5011198;28;20207;-71
2023/05/01 04:08:10;;;;;;;10.93;3.87;;;;;;;7.15;53.62;100930.88;5011556;28;20273;-70
2023/05/01 04:10:38;;;;;;;7.60;3.87;;;;;;;7.15;53.46;100927.44;5011275;28;20219;-70
2023/05/01 04:13:06;;;;;;;8.67;4.03;;;;;;;7.25;54.09;100935.31;5011072;28;20215;-70
2023/05/01 04:15:33;;;;;;;7.83;4.30;;;;;;;7.37;53.48;100929.53;5011706;28;20694;-70
2023/05/01 04:18:01;;;;;;;6.70;3.90;;;;;;;7.48;53.63;100932.25;5011169;28;20207;-69
2023/05/01 04:20:31;;;;;;;9.47;4.03;;;;;;;7.61;52.89;100931.56;5011048;28;20722;-71
2023/05/01 04:22:59;;;;;;;6.60;3.40;;;;;;;7.72;52.78;100924.91;5011301;28;20623;-71
2023/05/01 04:25:27;;;;;;;6.57;3.33;;;;;;;7.83;51.73;100925.03;5015124;28;20262;-70
2023/05/01 04:27:56;;;;;;;9.47;3.93;;;;;;;7.87;51.48;100923.38;5015274;28;20231;-71
2023/05/01 04:30:24;;;;;;;9.03;4.20;;;;;;;7.96;51.61;100926.09;5015002;28;20219;-73
2023/05/01 04:32:51;;;;;;;7.03;3.63;;;;;;;8.05;51.06;100921.06;5014755;28;20306;-72
2023/05/01 04:35:20;;;;;;;4.27;3.53;;;;;;;8.13;50.81;100934.00;5014837;28;20254;-72
2023/05/01 04:37:49;;;;;;;6.83;3.43;;;;;;;8.19;50.39;100927.22;5015083;28;20199;-70
2023/05/01 04:40:17;;;;;;;7.20;3.50;;;;;;;8.24;49.71;100923.00;5015402;28;20215;-71
2023/05/01 04:42:45;;;;;;;7.07;3.40;;;;;;;8.38;50.33;100925.78;5014606;28;20298;-71
2023/05/01 04:45:13;;;;;;;7.57;3.37;;;;;;;8.51;49.66;100926.78;5014489;28;20204;-72
2023/05/01 04:47:41;;;;;;;7.10;3.53;;;;;;;8.66;49.03;100926.09;5014733;28;20666;-71
2023/05/01 04:50:10;;;;;;;6.47;2.93;;;;;;;8.83;47.67;100924.53;5014460;28;20200;-73
2023/05/01 04:52:38;;;;;;;4.80;2.80;;;;;;;8.90;46.57;100921.19;5014701;28;20215;-74
2023/05/01 04:55:09;;;;;;;5.77;2.63;;;;;;;8.97;45.86;100913.53;5014536;28;20227;-71
2023/05/01 04:57:37;;;;;;;4.63;2.97;;;;;;;9.14;46.38;100915.41;5014781;28;20199;-73
2023/05/01 05:00:06;;;;;;;5.90;2.57;;;;;;;9.41;46.55;100919.03;5014266;28;20207;-72
2023/05/01 05:02:35;;;;;;;4.83;2.80;;;;;;;9.68;45.23;100908.94;5014648;28;20630;-71
2023/05/01 05:05:03;;;;;;;6.83;3.07;;;;;;;9.96;45.03;100903.06;5014350;28;20272;-75
2023/05/01 05:07:31;;;;;;;5.90;3.17;;;;;;;10.23;44.17;100907.47;5013987;28;20215;-70
2023/05/01 05:09:59;;;;;;;4.40;2.83;;;;;;;10.60;42.73;100908.47;5013987;28;20210;-71
2023/05/01 05:12:28;;;;;;;5.77;3.13;;;;;;;10.89;42.13;100900.78;5014375;28;20637;-74
2023/05/01 05:14:56;;;;;;;6.67;3.37;;;;;;;11.29;41.58;100906.78;5014157;28;20624;-71
2023/05/01 05:17:24;;;;;;;4.67;3.10;;;;;;;11.84;40.93;100905.88;5014141;28;20203;-71
2023/05/01 05:19:52;;;;;;;6.60;3.50;;;;;;;12.69;38.88;100898.59;5014188;28;20651;-70
2023/05/01 05:22:20;;;;;;;7.97;3.47;;;;;;;13.85;36.34;100894.16;5013873;28;20199;-71
2023/05/01 05:24:53;;;;;;;6.60;3.07;;;;;;;15.16;33.84;100891.44;5013943;28;20713;-72
2023/05/01 05:27:21;;;;;;;4.20;3.17;;;;;;;16.36;30.74;100893.47;5013433;28;20289;-70
2023/05/01 05:29:51;;;;;;;6.57;3.30;;;;;;;17.24;28.87;100889.69;5014296;28;20207;-70
2023/05/01 05:32:19;;;;;;;4.87;2.53;;;;;;;17.76;27.38;100885.75;5013149;28;20219;-71
2023/05/01 05:34:47;;;;;;;6.00;3.08;;;;;;;17.96;26.88;100879.09;5012878;28;20253;-71
2023/05/01 05:37:15;;;;;;;4.57;2.65;;;;;;;18.06;26.45;100885.75;5013359;28;20258;-71
2023/05/01 05:39:43;;;;;;;4.80;2.42;;;;;;;18.49;26.06;100884.50;5013572;28;20721;-70
2023/05/01 05:42:11;;;;;;;4.03;2.83;;;;;;;19.40;25.42;100883.25;5013308;28;20203;-72
2023/05/01 05:44:39;;;;;;;5.63;2.42;;;;;;;20.47;23.01;100875.84;5013481;28;20204;-72
2023/05/01 05:47:08;;;;;;;3.58;2.42;;;;;;;21.30;21.14;100880.34;5013600;28;20676;-71
2023/05/01 05:49:36;;;;;;;3.97;2.47;;;;;;;21.74;20.26;100883.69;5013503;28;20207;-75
2023/05/01 05:52:04;;;;;;;3.03;1.92;;;;;;;22.22;19.61;100879.78;5013248;28;20259;-70
2023/05/01 05:54:32;;;;;;;2.88;2.15;;;;;;;22.82;19.01;100884.78;5013279;28;20226;-70
2023/05/01 05:57:01;;;;;;;1.98;1.63;;;;;;;23.37;18.38;100882.91;5013457;28;20254;-71
2023/05/01 05:59:29;;;;;;;2.58;1.90;;;;;;;23.89;17.81;100881.97;5013279;28;20207;-70
2023/05/01 06:01:57;;;;;;;2.75;2.15;;;;;;;24.39;16.98;100873.13;5013332;28;20250;-71
2023/05/01 06:04:27;;;;;;;4.03;2.25;;;;;;;24.92;16.90;100879.75;5013257;28;20303;-73
2023/05/01 06:06:54;;;;;;;3.13;2.20;;;;;;;25.40;16.76;100876.97;5013158;28;20234;-71
2023/05/01 06:09:23;;;;;;;4.47;2.50;;;;;;;25.76;16.11;100880.00;5013190;28;20683;-70
2023/05/01 06:11:50;;;;;;;3.20;2.40;;;;;;;26.24;15.89;100882.34;5012987;28;20706;-71
2023/05/01 06:14:18;;;;;;;3.70;2.50;;;;;;;26.59;15.64;100879.28;5013105;28;20654;-71
2023/05/01 06:16:46;;;;;;;4.15;2.42;;;;;;;26.84;15.11;100879.31;5012769;28;20234;-71
2023/05/01 06:19:14;;;;;;;3.63;2.33;;;;;;;27.25;15.07;100882.81;5012569;28;20203;-72
2023/05/01 06:21:44;;;;;;;2.92;2.10;;;;;;;27.60;13.86;100881.25;5012441;28;20204;-71
2023/05/01 06:24:12;;;;;;;2.80;1.75;;;;;;;27.81;13.44;100880.75;5012654;28;20207;-71
2023/05/01 06:26:40;;;;;;;5.68;2.38;;;;;;;27.62;13.39;100881.16;5012516;28;20235;-71
2023/05/01 06:29:08;;;;;;;4.40;1.80;;;;;;;27.37;13.68;100882.84;5012416;28;20211;-71
2023/05/01 06:31:36;;;;;;;3.80;1.80;;;;;;;27.41;13.52;100883.47;5012181;28;20301;-71
2023/05/01 06:34:04;;;;;;;3.50;2.08;;;;;;;27.17;13.58;100891.28;5012275;28;20265;-70
2023/05/01 06:36:31;;;;;;;3.33;2.08;;;;;;;26.83;13.20;100888.22;5012195;28;20203;-70
2023/05/01 06:39:01;;;;;;;3.60;2.10;;;;;;;26.53;13.90;100895.53;5012595;28;20226;-72
2023/05/01 06:41:29;;;;;;;3.30;2.22;;;;;;;26.35;14.73;100887.78;4998993;28;20659;-71
2023/05/01 06:43:57;;;;;;;4.47;1.88;;;;;;;26.87;14.43;100884.41;5012414;28;20246;-71
2023/05/01 06:46:25;;;;;;;2.40;1.98;;;;;;;27.32;13.99;100884.09;5012009;28;20207;-70
2023/05/01 06:48:53;;;;;;;3.70;2.08;;;;;;;27.95;13.15;100883.28;5012481;28;20203;-72
2023/05/01 06:51:21;;;;;;;3.53;2.30;;;;;;;28.72;13.01;100878.56;5011785;28;20199;-72
2023/05/01 06:53:49;;;;;;;3.95;1.90;;;;;;;28.97;12.71;100879.38;5012171;28;20207;-71
2023/05/01 06:56:18;;;;;;;2.75;1.92;;;;;;;28.27;12.58;100882.75;5012213;28;20655;-71
2023/05/01 06:58:46;;;;;;;2.55;1.92;;;;;;;27.58;13.49;100877.88;5012092;28;20670;-72
2023/05/01 07:01:14;;;;;;;3.10;2.15;;;;;;;27.09;13.50;100883.00;5012306;28;20627;-71
2023/05/01 07:03:42;;;;;;;2.40;1.85;;;;;;;26.67;14.15;100876.97;5012281;28;20209;-71
2023/05/01 07:06:10;;;;;;;5.68;3.20;;;;;;;26.39;14.51;100876.06;5012289;28;20743;-73
2023/05/01 07:08:38;;;;;;;5.45;2.40;;;;;;;26.52;14.92;100878.81;5012266;28;20203;-73
2023/05/01 07:11:07;;;;;;;4.65;2.20;;;;;;;26.79;14.73;100870.03;5011998;28;20202;-72
2023/05/01 07:13:36;;;;;;;3.05;2.28;;;;;;;27.52;14.49;100880.94;5011537;28;20234;-71
2023/05/01 07:16:04;;;;;;;4.15;2.30;;;;;;;28.25;13.74;100880.22;5012094;28;20226;-71
2023/05/01 07:18:33;;;;;;;3.85;2.35;;;;;;;28.87;13.38;100868.63;5011400;28;20226;-71
2023/05/01 07:21:01;;;;;;;3.58;2.28;;;;;;;29.66;12.88;100864.34;5011986;28;20203;-70
2023/05/01 07:23:29;;;;;;;3.80;2.45;;;;;;;30.33;12.46;100858.94;5011704;28;20650;-71
2023/05/01 07:25:57;;;;;;;2.45;2.10;;;;;;;30.60;11.73;100870.97;5011676;28;20211;-70
2023/05/01 07:28:25;;;;;;;6.13;2.40;;;;;;;30.21;12.20;100870.59;5011626;28;20607;-70
2023/05/01 07:30:54;;;;;;;3.92;2.40;;;;;;;30.44;12.45;100854.56;5011728;28;20211;-70
2023/05/01 07:33:24;;;;;;;2.17;1.88;;;;;;;30.45;12.23;100865.09;5011197;28;20231;-71
2023/05/01 07:35:53;;;;;;;3.22;2.20;;;;;;;29.76;12.62;100870.63;5011169;28;20203;-70
2023/05/01 07:38:20;;;;;;;2.95;2.08;;;;;;;29.51;12.67;100869.00;5011364;28;20250;-71
2023/05/01 07:40:52;;;;;;;3.63;2.30;;;;;;;29.27;13.01;100869.13;5011273;28;20745;-71
2023/05/01 07:43:20;;;;;;;4.00;2.40;;;;;;;29.07;13.07;100875.09;5011825;28;20199;-71
2023/05/01 07:45:57;;;;;;;3.58;2.00;;;;;;;29.18;13.76;100869.81;5011345;28;20203;-70
2023/05/01 07:48:26;;;;;;;2.35;1.98;;;;;;;29.96;13.10;100860.22;4998768;28;20257;-70
2023/05/01 07:50:55;;;;;;;2.97;2.03;;;;;;;30.27;12.85;100858.63;5011660;28;20238;-71
2023/05/01 07:53:23;;;;;;;3.13;2.00;;;;;;;30.79;12.66;100865.00;5011350;28;20682;-72
2023/05/01 07:55:51;;;;;;;3.85;2.60;;;;;;;30.70;11.72;100869.22;5010960;28;20215;-71
2023/05/01 07:58:19;;;;;;;4.28;2.28;;;;;;;30.04;12.42;100858.63;5010552;28;20207;-69
2023/05/01 08:00:47;;;;;;;3.42;2.13;;;;;;;29.62;13.22;100860.25;5011210;28;20203;-72
2023/05/01 08:03:16;;;;;;;5.45;2.22;;;;;;;29.53;13.06;100858.25;5011095;28;20694;-69
2023/05/01 08:05:44;;;;;;;3.67;1.95;;;;;;;29.64;12.97;100860.94;5010998;28;20253;-72
2023/05/01 08:08:18;;;;;;;3.38;2.03;;;;;;;29.67;12.85;100857.22;5011026;28;20275;-70
2023/05/01 08:10:46;;;;;;;2.67;2.10;;;;;;;29.57;12.73;100862.38;5011296;28;20580;-70
2023/05/01 08:13:14;;;;;;;4.25;2.22;;;;;;;29.56;13.08;100868.66;5010643;28;20231;-70
2023/05/01 08:15:42;;;;;;;4.05;2.15;;;;;;;29.59;13.54;100865.78;5009814;28;20211;-71
2023/05/01 08:18:10;;;;;;;3.00;2.03;;;;;;;29.23;13.07;100862.31;5010663;28;20211;-71
2023/05/01 08:20:40;;;;;;;4.78;2.45;;;;;;;28.69;13.85;100867.34;5011146;28;20330;-68
2023/05/01 08:23:08;;;;;;;5.65;2.35;;;;;;;28.48;14.90;100864.47;5011180;28;20199;-71
2023/05/01 08:25:36;;;;;;;3.00;2.30;;;;;;;27.75;14.79;100875.88;5011006;28;20223;-70
2023/05/01 08:28:05;;;;;;;4.78;2.30;;;;;;;26.50;14.78;100870.97;5010886;28;20596;-72
2023/05/01 08:30:33;;;;;;;3.83;2.38;;;;;;;25.37;15.71;100878.03;5010820;28;20272;-71
2023/05/01 08:33:00;;;;;;;3.47;2.17;;;;;;;24.59;16.76;100875.47;5002591;28;20269;-70
2023/05/01 08:35:28;;;;;;;4.25;2.55;;;;;;;23.54;17.76;100876.78;5010918;28;20287;-72
2023/05/01 08:37:58;;;;;;;3.97;2.60;;;;;;;22.57;18.78;100879.88;5010689;28;20219;-72
2023/05/01 08:40:26;;;;;;;2.63;2.10;;;;;;;21.37;20.13;100882.69;5010924;28;20740;-70
2023/05/01 08:42:55;;;;;;;3.72;2.50;;;;;;;20.64;20.78;100881.31;5010892;28;20211;-73
2023/05/01 08:45:24;;;;;;;4.60;2.40;;;;;;;20.22;21.72;100876.81;5011061;28;20701;-72
2023/05/01 08:47:54;;;;;;;3.72;2.17;;;;;;;19.81;22.10;100874.88;5010619;28;20230;-71
2023/05/01 08:50:25;;;;;;;4.40;2.60;;;;;;;19.42;22.37;100883.22;5011164;28;20551;-73
2023/05/01 08:52:54;;;;;;;7.60;2.42;;;;;;;19.10;22.77;100882.53;5010988;28;20654;-71
2023/05/01 08:55:26;;;;;;;5.00;2.40;;;;;;;19.00;22.86;100881.13;5010688;28;20273;-72
2023/05/01 08:57:55;;;;;;;3.63;2.20;;;;;;;18.88;23.42;100882.38;5010757;28;20211;-71
2023/05/01 09:00:26;;;;;;;3.67;2.30;;;;;;;18.82;23.57;100877.38;5011034;28;20207;-71
2023/05/01 09:02:54;;;;;;;3.85;2.45;;;;;;;18.82;23.70;100872.16;5010774;28;20226;-71
2023/05/01 09:05:22;;;;;;;4.57;2.22;;;;;;;18.92;23.59;100877.91;5010924;28;20219;-73
2023/05/01 09:07:50;;;;;;;3.78;2.25;;;;;;;19.07;23.27;100877.41;5010929;28;20261;-72
2023/05/01 09:10:18;;;;;;;5.40;2.38;;;;;;;19.28;23.02;100870.59;5012582;28;20954;-72
2023/05/01 09:12:52;;;;;;;3.95;2.20;;;;;;;19.88;22.61;100868.50;5013849;28;20226;-73
2023/05/01 09:15:21;;;;;;;3.08;2.05;;;;;;;20.77;21.94;100859.84;5014020;28;20297;-72
2023/05/01 09:17:49;;;;;;;3.60;2.20;;;;;;;21.51;20.25;100862.88;5013922;28;20622;-71
2023/05/01 09:20:19;;;;;;;3.85;2.13;;;;;;;21.99;19.43;100859.81;5013963;28;20603;-71
2023/05/01 09:22:47;;;;;;;5.03;2.08;;;;;;;22.15;18.76;100852.97;5014170;28;20654;-72
2023/05/01 09:25:15;;;;;;;3.13;2.03;;;;;;;22.61;18.68;100853.41;5013814;28;20207;-73
2023/05/01 09:27:44;;;;;;;6.28;1.88;;;;;;;22.96;17.93;100849.97;5013443;28;20269;-71
2023/05/01 09:30:30;;;;;;;2.67;2.15;;;;;;;23.96;17.68;100843.84;5013959;28;20203;-71
2023/05/01 09:33:08;;;;;;;4.65;2.30;;;;;;;24.97;16.67;100832.88;5005006;28;20249;-71
2023/05/01 09:35:54;;;;;;;4.50;2.45;;;;;;;25.85;17.15;100831.13;5013653;28;20658;-71
2023/05/01 09:38:24;;;;;;;3.65;2.10;;;;;;;26.60;16.47;100830.72;5013405;28;20204;-72
2023/05/01 09:40:55;;;;;;;4.35;2.47;;;;;;;27.44;15.40;100825.88;5013708;28;20680;-71
2023/05/01 09:43:27;;;;;;;3.65;2.10;;;;;;;28.14;15.13;100822.69;5013770;28;20694;-71
2023/05/01 09:46:05;;;;;;;3.00;1.92;;;;;;;28.53;15.00;100819.88;5013157;28;20214;-70
2023/05/01 09:48:33;;;;;;;3.30;1.70;;;;;;;28.63;12.60;100818.25;5013132;28;20265;-71
2023/05/01 09:51:20;;;;;;;2.85;1.60;;;;;;;28.29;12.44;100811.94;5013245;28;20286;-71
2023/05/01 09:53:48;;;;;;;4.38;2.00;;;;;;;28.32;12.12;100809.06;5013121;28;20215;-70
2023/05/01 09:56:17;;;;;;;2.28;1.80;;;;;;;28.51;12.50;100813.88;5013010;28;20211;-70
2023/05/01 09:58:45;;;;;;;5.60;3.80;;;;;;;28.92;12.57;100815.19;5013492;28;20215;-70
2023/05/01 10:01:15;;;;;;;2.22;1.70;;;;;;;29.52;12.45;100808.78;5012838;28;20203;-71
2023/05/01 10:03:44;;;;;;;3.55;1.75;;;;;;;30.04;11.37;100801.97;5013089;28;20570;-70
2023/05/01 10:06:12;;;;;;;1.73;1.55;;;;;;;29.82;10.11;100801.03;5013208;28;20745;-71
2023/05/01 10:08:48;;;;;;;1.90;1.40;;;;;;;29.88;9.81;100806.84;5012682;28;20218;-71
2023/05/01 10:11:16;;;;;;;2.47;1.52;;;;;;;29.84;10.23;100799.09;5013167;28;20202;-71
2023/05/01 10:13:44;;;;;;;3.40;1.63;;;;;;;29.88;10.25;100805.03;5012926;28;20568;-72
2023/05/01 10:16:30;;;;;;;2.40;1.50;;;;;;;30.28;9.91;100797.34;5012988;28;20265;-71
2023/05/01 10:18:59;;;;;;;2.72;1.55;;;;;;;30.95;9.71;100787.34;5012653;28;20257;-71
2023/05/01 10:21:32;;;;;;;5.05;1.80;;;;;;;31.77;9.27;100782.78;5012315;28;20577;-70
2023/05/01 10:24:01;;;;;;;4.28;1.67;;;;;;;31.79;9.05;100788.00;4998748;28;20199;-71
2023/05/01 10:26:29;;;;;;;4.22;1.50;;;;;;;31.37;9.76;100773.97;5012382;28;20235;-71
2023/05/01 10:29:00;;;;;;;3.72;1.60;;;;;;;31.60;10.04;100775.47;5012938;28;20210;-71
2023/05/01 10:31:31;;;;;;;3.10;1.83;;;;;;;31.71;10.42;100774.53;5012733;28;20613;-70
2023/05/01 10:34:00;;;;;;;2.85;1.90;;;;;;;31.89;10.45;100772.91;5011934;28;20227;-71
2023/05/01 10:36:34;;;;;;;3.65;1.95;;;;;;;31.77;10.72;100769.47;5012693;28;20265;-70
2023/05/01 10:39:02;;;;;;;2.28;1.70;;;;;;;31.84;10.78;100758.28;5012344;28;20203;-71
2023/05/01 10:42:02;;;;;;;2.08;1.52;;;;;;;31.66;11.16;100758.09;4998741;28;20238;-68
2023/05/01 10:44:31;;;;;;;2.67;1.63;;;;;;;31.59;10.49;100756.94;4970598;28;20287;-69
2023/05/01 10:47:00;;;;;;;3.53;1.77;;;;;;;31.51;11.08;100757.63;5003674;28;20207;-71
2023/05/01 10:50:03;;;;;;;3.78;1.90;;;;;;;31.74;10.90;100759.09;5012256;28;20261;-71
2023/05/01 10:52:31;;;;;;;4.00;1.73;;;;;;;31.79;10.75;100758.69;5012355;28;20218;-71
2023/05/01 10:55:32;;;;;;;2.90;1.83;;;;;;;31.81;10.55;100758.53;5012038;28;20695;-70
2023/05/01 10:58:00;;;;;;;2.65;1.88;;;;;;;32.27;10.57;100755.25;5011994;28;20210;-70
2023/05/01 11:00:28;;;;;;;5.22;2.05;;;;;;;32.28;10.20;100750.75;5011951;28;20199;-72
2023/05/01 11:03:26;;;;;;;3.47;1.92;;;;;;;32.24;10.25;100748.38;5011930;28;20651;-70
2023/05/01 11:06:16;;;;;;;2.88;1.83;;;;;;;31.84;10.42;100747.59;5003401;28;20698;-70
2023/05/01 11:08:44;;;;;;;5.32;1.80;;;;;;;30.85;10.97;100738.53;5008908;28;20215;-71
2023/05/01 11:11:50;;;;;;;4.22;1.80;;;;;;;30.07;12.35;100732.59;5012174;28;20211;-70
2023/05/01 11:14:18;;;;;;;2.35;1.90;;;;;;;30.06;11.91;100738.91;5011685;28;20309;-71
2023/05/01 11:16:47;;;;;;;3.20;1.88;;;;;;;30.03;11.10;100736.50;5011810;28;20285;-71
2023/05/01 11:19:49;;;;;;;2.50;1.83;;;;;;;29.53;11.27;100731.66;5011557;28;20207;-70
2023/05/01 11:22:18;;;;;;;2.72;1.80;;;;;;;29.13;11.65;100723.34;5010225;28;20210;-71
2023/05/01 11:24:46;;;;;;;4.45;2.08;;;;;;;28.83;12.35;100724.75;5011784;28;20618;-71
2023/05/01 11:27:15;;;;;;;4.97;1.75;;;;;;;28.39;12.79;100731.66;5011420;28;20246;-70
2023/05/01 11:29:47;;;;;;;3.35;1.67;;;;;;;27.54;13.67;100721.97;5011675;28;20637;-71
2023/05/01 11:32:26;;;;;;;2.08;1.45;;;;;;;26.65;13.75;100717.59;5011231;28;20570;-71
2023/05/01 11:34:55;;;;;;;3.72;2.00;;;;;;;25.70;13.96;100719.38;4999134;28;20218;-71
2023/05/01 11:37:40;;;;;;;3.42;2.00;;;;;;;24.90;15.37;100718.19;5011218;28;20293;-72
2023/05/01 11:40:21;;;;;;;6.00;1.80;;;;;;;24.36;16.06;100715.22;5011207;28;20207;-70
2023/05/01 11:42:50;;;;;;;4.28;1.83;;;;;;;23.70;15.69;100711.06;5011176;28;20206;-72
2023/05/01 11:45:19;;;;;;;4.68;1.70;;;;;;;23.17;15.82;100711.34;5011506;28;20199;-70